sensor_id;sensor_type;location;lat;lon;timestamp;P1;durP1;ratioP1;P2;durP2;ratioP2
13415;SDS011;6779;50.150;8.680;2022-09-09T00:00:17;2.03;;;1.40;;
13415;SDS011;6779;50.150;8.680;2022-09-09T00:02:45;1.53;;;1.23;;
13415;SDS011;6779;50.150;8.680;2022-09-09T00:05:19;3.37;;;1.50;;
13415;SDS011;6779;50.150;8.680;2022-09-09T00:07:58;5.17;;;2.00;;
13415;SDS011;6779;50.150;8.680;2022-09-09T00:10:39;2.13;;;1.23;;
13415;SDS011;6779;50.150;8.680;2022-09-09T00:13:28;2.23;;;1.30;;
13415;SDS011;6779;50.150;8.680;2022-09-09T00:16:07;2.50;;;1.07;;
13415;SDS011;6779;50.150;8.680;2022-09-09T00:18:48;3.00;;;1.30;;
13415;SDS011;6779;50.150;8.680;2022-09-09T00:21:22;1.93;;;1.13;;
13415;SDS011;6779;50.150;8.680;2022-09-09T00:23:59;2.27;;;1.00;;
13415;SDS011;6779;50.150;8.680;2022-09-09T00:26:38;1.70;;;1.20;;
13415;SDS011;6779;50.150;8.680;2022-09-09T00:29:10;1.93;;;1.10;;
13415;SDS011;6779;50.150;8.680;2022-09-09T00:31:46;2.17;;;1.17;;
13415;SDS011;6779;50.150;8.680;2022-09-09T00:34:17;1.57;;;1.00;;
13415;SDS011;6779;50.150;8.680;2022-09-09T00:36:45;2.27;;;1.30;;
13415;SDS011;6779;50.150;8.680;2022-09-09T00:39:23;3.53;;;1.20;;
13415;SDS011;6779;50.150;8.680;2022-09-09T00:47:20;1.53;;;1.27;;
13415;SDS011;6779;50.150;8.680;2022-09-09T00:53:02;1.53;;;1.23;;
13415;SDS011;6779;50.150;8.680;2022-09-09T00:58:14;4.33;;;1.27;;
13415;SDS011;6779;50.150;8.680;2022-09-09T01:00:47;1.50;;;1.10;;
13415;SDS011;6779;50.150;8.680;2022-09-09T01:03:30;2.00;;;1.20;;
13415;SDS011;6779;50.150;8.680;2022-09-09T01:11:36;4.23;;;1.63;;
13415;SDS011;6779;50.150;8.680;2022-09-09T01:14:18;3.67;;;1.40;;
13415;SDS011;6779;50.150;8.680;2022-09-09T01:16:56;3.80;;;1.10;;
13415;SDS011;6779;50.150;8.680;2022-09-09T01:22:15;2.07;;;1.50;;
13415;SDS011;6779;50.150;8.680;2022-09-09T01:27:39;3.63;;;2.43;;
13415;SDS011;6779;50.150;8.680;2022-09-09T01:30:09;1.90;;;1.40;;
13415;SDS011;6779;50.150;8.680;2022-09-09T01:32:40;1.53;;;1.13;;
13415;SDS011;6779;50.150;8.680;2022-09-09T01:35:29;2.50;;;1.13;;
13415;SDS011;6779;50.150;8.680;2022-09-09T01:38:05;2.73;;;1.40;;
13415;SDS011;6779;50.150;8.680;2022-09-09T01:40:31;2.40;;;1.30;;
13415;SDS011;6779;50.150;8.680;2022-09-09T01:42:57;1.70;;;1.23;;
13415;SDS011;6779;50.150;8.680;2022-09-09T01:45:22;1.37;;;1.27;;
13415;SDS011;6779;50.150;8.680;2022-09-09T01:47:49;1.97;;;1.30;;
13415;SDS011;6779;50.150;8.680;2022-09-09T01:50:17;2.47;;;1.40;;
13415;SDS011;6779;50.150;8.680;2022-09-09T01:52:43;2.87;;;1.30;;
13415;SDS011;6779;50.150;8.680;2022-09-09T01:55:12;1.40;;;1.30;;
13415;SDS011;6779;50.150;8.680;2022-09-09T01:57:48;2.87;;;1.27;;
13415;SDS011;6779;50.150;8.680;2022-09-09T02:00:22;1.33;;;1.23;;
13415;SDS011;6779;50.150;8.680;2022-09-09T02:03:00;1.47;;;1.37;;
13415;SDS011;6779;50.150;8.680;2022-09-09T02:05:35;2.77;;;1.40;;
13415;SDS011;6779;50.150;8.680;2022-09-09T02:08:08;3.40;;;1.40;;
13415;SDS011;6779;50.150;8.680;2022-09-09T02:10:42;3.00;;;1.20;;
13415;SDS011;6779;50.150;8.680;2022-09-09T02:13:14;2.13;;;1.20;;
13415;SDS011;6779;50.150;8.680;2022-09-09T02:15:47;3.17;;;1.43;;
13415;SDS011;6779;50.150;8.680;2022-09-09T02:18:27;5.17;;;1.60;;
13415;SDS011;6779;50.150;8.680;2022-09-09T02:20:57;3.10;;;1.43;;
13415;SDS011;6779;50.150;8.680;2022-09-09T02:23:24;4.13;;;1.37;;
13415;SDS011;6779;50.150;8.680;2022-09-09T02:25:51;3.20;;;1.43;;
13415;SDS011;6779;50.150;8.680;2022-09-09T02:28:19;3.43;;;1.60;;
13415;SDS011;6779;50.150;8.680;2022-09-09T02:30:50;2.47;;;1.60;;
13415;SDS011;6779;50.150;8.680;2022-09-09T02:33:20;4.03;;;1.80;;
13415;SDS011;6779;50.150;8.680;2022-09-09T02:35:49;2.97;;;1.70;;
13415;SDS011;6779;50.150;8.680;2022-09-09T02:38:17;3.67;;;1.60;;
13415;SDS011;6779;50.150;8.680;2022-09-09T02:40:45;3.10;;;1.47;;
13415;SDS011;6779;50.150;8.680;2022-09-09T02:43:11;3.57;;;1.63;;
13415;SDS011;6779;50.150;8.680;2022-09-09T02:45:44;4.17;;;2.13;;
13415;SDS011;6779;50.150;8.680;2022-09-09T02:48:30;2.47;;;1.83;;
13415;SDS011;6779;50.150;8.680;2022-09-09T02:51:15;1.70;;;1.53;;
13415;SDS011;6779;50.150;8.680;2022-09-09T02:53:58;4.30;;;1.50;;
13415;SDS011;6779;50.150;8.680;2022-09-09T02:56:35;3.00;;;1.30;;
13415;SDS011;6779;50.150;8.680;2022-09-09T02:59:06;2.17;;;1.70;;
13415;SDS011;6779;50.150;8.680;2022-09-09T03:01:32;4.80;;;2.23;;
13415;SDS011;6779;50.150;8.680;2022-09-09T03:03:58;5.00;;;2.43;;
13415;SDS011;6779;50.150;8.680;2022-09-09T03:06:23;3.97;;;2.47;;
13415;SDS011;6779;50.150;8.680;2022-09-09T03:08:49;2.87;;;1.67;;
13415;SDS011;6779;50.150;8.680;2022-09-09T03:11:15;2.27;;;1.83;;
13415;SDS011;6779;50.150;8.680;2022-09-09T03:13:41;3.17;;;2.10;;
13415;SDS011;6779;50.150;8.680;2022-09-09T03:16:07;2.73;;;1.70;;
13415;SDS011;6779;50.150;8.680;2022-09-09T03:18:32;3.53;;;1.60;;
13415;SDS011;6779;50.150;8.680;2022-09-09T03:20:59;2.73;;;1.70;;
13415;SDS011;6779;50.150;8.680;2022-09-09T03:23:25;1.70;;;1.60;;
13415;SDS011;6779;50.150;8.680;2022-09-09T03:25:50;2.20;;;1.67;;
13415;SDS011;6779;50.150;8.680;2022-09-09T03:28:17;3.60;;;1.77;;
13415;SDS011;6779;50.150;8.680;2022-09-09T03:30:43;2.83;;;1.90;;
13415;SDS011;6779;50.150;8.680;2022-09-09T03:33:09;2.30;;;1.80;;
13415;SDS011;6779;50.150;8.680;2022-09-09T03:35:34;4.37;;;2.03;;
13415;SDS011;6779;50.150;8.680;2022-09-09T03:38:00;2.93;;;2.00;;
13415;SDS011;6779;50.150;8.680;2022-09-09T03:40:26;4.23;;;1.53;;
13415;SDS011;6779;50.150;8.680;2022-09-09T03:42:51;2.87;;;1.40;;
13415;SDS011;6779;50.150;8.680;2022-09-09T03:45:17;2.80;;;1.40;;
13415;SDS011;6779;50.150;8.680;2022-09-09T03:47:43;1.93;;;1.50;;
13415;SDS011;6779;50.150;8.680;2022-09-09T03:50:08;3.20;;;1.67;;
13415;SDS011;6779;50.150;8.680;2022-09-09T03:52:36;3.70;;;1.60;;
13415;SDS011;6779;50.150;8.680;2022-09-09T03:55:05;6.20;;;1.93;;
13415;SDS011;6779;50.150;8.680;2022-09-09T03:57:32;2.70;;;1.53;;
13415;SDS011;6779;50.150;8.680;2022-09-09T04:00:00;3.80;;;2.00;;
13415;SDS011;6779;50.150;8.680;2022-09-09T04:02:30;3.87;;;1.57;;
13415;SDS011;6779;50.150;8.680;2022-09-09T04:04:56;3.90;;;1.50;;
13415;SDS011;6779;50.150;8.680;2022-09-09T04:07:21;5.53;;;1.30;;
13415;SDS011;6779;50.150;8.680;2022-09-09T04:09:47;3.37;;;1.60;;
13415;SDS011;6779;50.150;8.680;2022-09-09T04:12:13;3.33;;;1.83;;
13415;SDS011;6779;50.150;8.680;2022-09-09T04:14:38;2.00;;;1.30;;
13415;SDS011;6779;50.150;8.680;2022-09-09T04:17:04;6.27;;;1.50;;
13415;SDS011;6779;50.150;8.680;2022-09-09T04:19:31;2.17;;;1.50;;
13415;SDS011;6779;50.150;8.680;2022-09-09T04:21:57;3.00;;;1.80;;
13415;SDS011;6779;50.150;8.680;2022-09-09T04:24:23;2.97;;;1.77;;
13415;SDS011;6779;50.150;8.680;2022-09-09T04:26:49;2.63;;;1.40;;
13415;SDS011;6779;50.150;8.680;2022-09-09T04:29:15;2.40;;;1.20;;
13415;SDS011;6779;50.150;8.680;2022-09-09T04:31:40;3.80;;;1.77;;
13415;SDS011;6779;50.150;8.680;2022-09-09T04:34:07;2.47;;;1.70;;
13415;SDS011;6779;50.150;8.680;2022-09-09T04:36:33;4.00;;;1.57;;
13415;SDS011;6779;50.150;8.680;2022-09-09T04:38:59;2.00;;;1.80;;
13415;SDS011;6779;50.150;8.680;2022-09-09T04:41:25;3.17;;;1.73;;
13415;SDS011;6779;50.150;8.680;2022-09-09T04:43:50;4.33;;;1.57;;
13415;SDS011;6779;50.150;8.680;2022-09-09T04:46:17;3.13;;;1.40;;
13415;SDS011;6779;50.150;8.680;2022-09-09T04:48:42;1.97;;;1.37;;
13415;SDS011;6779;50.150;8.680;2022-09-09T04:51:11;2.03;;;1.30;;
13415;SDS011;6779;50.150;8.680;2022-09-09T04:53:38;3.00;;;1.40;;
13415;SDS011;6779;50.150;8.680;2022-09-09T04:56:06;3.27;;;1.40;;
13415;SDS011;6779;50.150;8.680;2022-09-09T04:58:32;3.33;;;1.47;;
13415;SDS011;6779;50.150;8.680;2022-09-09T05:01:07;2.13;;;1.57;;
13415;SDS011;6779;50.150;8.680;2022-09-09T05:03:35;1.83;;;1.27;;
13415;SDS011;6779;50.150;8.680;2022-09-09T05:06:04;3.77;;;1.97;;
13415;SDS011;6779;50.150;8.680;2022-09-09T05:08:31;4.33;;;1.30;;
13415;SDS011;6779;50.150;8.680;2022-09-09T05:10:57;3.80;;;1.50;;
13415;SDS011;6779;50.150;8.680;2022-09-09T05:13:24;3.73;;;1.20;;
13415;SDS011;6779;50.150;8.680;2022-09-09T05:15:53;4.50;;;1.50;;
13415;SDS011;6779;50.150;8.680;2022-09-09T05:18:19;1.80;;;1.27;;
13415;SDS011;6779;50.150;8.680;2022-09-09T05:20:44;4.93;;;1.60;;
13415;SDS011;6779;50.150;8.680;2022-09-09T05:23:10;3.03;;;1.57;;
13415;SDS011;6779;50.150;8.680;2022-09-09T05:25:38;3.67;;;1.50;;
13415;SDS011;6779;50.150;8.680;2022-09-09T05:28:05;2.73;;;1.60;;
13415;SDS011;6779;50.150;8.680;2022-09-09T05:30:32;3.60;;;2.00;;
13415;SDS011;6779;50.150;8.680;2022-09-09T05:32:57;5.30;;;1.80;;
13415;SDS011;6779;50.150;8.680;2022-09-09T05:35:23;2.77;;;1.30;;
13415;SDS011;6779;50.150;8.680;2022-09-09T05:37:48;3.43;;;1.67;;
13415;SDS011;6779;50.150;8.680;2022-09-09T05:40:14;2.07;;;1.60;;
13415;SDS011;6779;50.150;8.680;2022-09-09T05:42:39;2.27;;;1.33;;
13415;SDS011;6779;50.150;8.680;2022-09-09T05:45:06;3.43;;;1.47;;
13415;SDS011;6779;50.150;8.680;2022-09-09T05:47:33;5.27;;;1.60;;
13415;SDS011;6779;50.150;8.680;2022-09-09T05:50:00;1.57;;;1.30;;
13415;SDS011;6779;50.150;8.680;2022-09-09T05:52:25;8.13;;;1.57;;
13415;SDS011;6779;50.150;8.680;2022-09-09T05:54:52;3.50;;;1.50;;
13415;SDS011;6779;50.150;8.680;2022-09-09T05:57:19;1.70;;;1.17;;
13415;SDS011;6779;50.150;8.680;2022-09-09T05:59:45;5.70;;;1.53;;
13415;SDS011;6779;50.150;8.680;2022-09-09T06:02:10;2.27;;;1.63;;
13415;SDS011;6779;50.150;8.680;2022-09-09T06:04:37;4.43;;;2.23;;
13415;SDS011;6779;50.150;8.680;2022-09-09T06:07:03;1.60;;;1.40;;
13415;SDS011;6779;50.150;8.680;2022-09-09T06:09:29;2.17;;;1.50;;
13415;SDS011;6779;50.150;8.680;2022-09-09T06:11:55;3.53;;;1.70;;
13415;SDS011;6779;50.150;8.680;2022-09-09T06:14:23;3.10;;;1.40;;
13415;SDS011;6779;50.150;8.680;2022-09-09T06:16:50;6.87;;;1.37;;
13415;SDS011;6779;50.150;8.680;2022-09-09T06:19:16;3.07;;;1.57;;
13415;SDS011;6779;50.150;8.680;2022-09-09T06:21:42;1.87;;;1.23;;
13415;SDS011;6779;50.150;8.680;2022-09-09T06:24:09;2.33;;;1.20;;
13415;SDS011;6779;50.150;8.680;2022-09-09T06:26:36;2.13;;;1.17;;
13415;SDS011;6779;50.150;8.680;2022-09-09T06:29:04;2.70;;;1.27;;
13415;SDS011;6779;50.150;8.680;2022-09-09T06:31:30;5.53;;;1.50;;
13415;SDS011;6779;50.150;8.680;2022-09-09T06:33:58;3.57;;;1.60;;
13415;SDS011;6779;50.150;8.680;2022-09-09T06:36:26;4.27;;;1.50;;
13415;SDS011;6779;50.150;8.680;2022-09-09T06:38:53;5.00;;;1.50;;
13415;SDS011;6779;50.150;8.680;2022-09-09T06:41:20;1.37;;;1.27;;
13415;SDS011;6779;50.150;8.680;2022-09-09T06:43:47;3.13;;;2.10;;
13415;SDS011;6779;50.150;8.680;2022-09-09T06:46:14;5.27;;;1.60;;
13415;SDS011;6779;50.150;8.680;2022-09-09T06:48:42;2.77;;;1.40;;
13415;SDS011;6779;50.150;8.680;2022-09-09T06:51:12;2.67;;;1.27;;
13415;SDS011;6779;50.150;8.680;2022-09-09T06:53:40;3.90;;;1.23;;
13415;SDS011;6779;50.150;8.680;2022-09-09T06:58:41;2.90;;;1.60;;
13415;SDS011;6779;50.150;8.680;2022-09-09T07:01:11;2.77;;;1.50;;
13415;SDS011;6779;50.150;8.680;2022-09-09T07:03:38;3.17;;;1.30;;
13415;SDS011;6779;50.150;8.680;2022-09-09T07:06:05;2.37;;;1.30;;
13415;SDS011;6779;50.150;8.680;2022-09-09T07:08:31;1.93;;;1.20;;
13415;SDS011;6779;50.150;8.680;2022-09-09T07:11:03;2.30;;;1.27;;
13415;SDS011;6779;50.150;8.680;2022-09-09T07:13:30;4.80;;;1.60;;
13415;SDS011;6779;50.150;8.680;2022-09-09T07:16:03;2.63;;;1.30;;
13415;SDS011;6779;50.150;8.680;2022-09-09T07:18:34;4.00;;;1.47;;
13415;SDS011;6779;50.150;8.680;2022-09-09T07:21:00;2.43;;;1.30;;
13415;SDS011;6779;50.150;8.680;2022-09-09T07:23:27;2.90;;;1.20;;
13415;SDS011;6779;50.150;8.680;2022-09-09T07:25:53;1.70;;;1.10;;
13415;SDS011;6779;50.150;8.680;2022-09-09T07:28:19;3.97;;;1.40;;
13415;SDS011;6779;50.150;8.680;2022-09-09T07:30:58;2.13;;;1.53;;
13415;SDS011;6779;50.150;8.680;2022-09-09T07:33:27;4.97;;;1.63;;
13415;SDS011;6779;50.150;8.680;2022-09-09T07:36:01;2.67;;;1.60;;
13415;SDS011;6779;50.150;8.680;2022-09-09T07:38:29;3.27;;;1.27;;
13415;SDS011;6779;50.150;8.680;2022-09-09T07:41:02;5.40;;;1.30;;
13415;SDS011;6779;50.150;8.680;2022-09-09T07:43:29;2.13;;;1.40;;
13415;SDS011;6779;50.150;8.680;2022-09-09T07:45:58;3.80;;;1.27;;
13415;SDS011;6779;50.150;8.680;2022-09-09T07:48:25;2.70;;;1.30;;
13415;SDS011;6779;50.150;8.680;2022-09-09T07:50:50;3.23;;;1.43;;
13415;SDS011;6779;50.150;8.680;2022-09-09T07:53:16;1.53;;;1.40;;
13415;SDS011;6779;50.150;8.680;2022-09-09T07:55:42;4.67;;;1.73;;
13415;SDS011;6779;50.150;8.680;2022-09-09T07:58:08;5.40;;;1.40;;
13415;SDS011;6779;50.150;8.680;2022-09-09T08:00:33;1.77;;;1.10;;
13415;SDS011;6779;50.150;8.680;2022-09-09T08:02:59;2.97;;;1.30;;
13415;SDS011;6779;50.150;8.680;2022-09-09T08:05:26;4.33;;;1.30;;
13415;SDS011;6779;50.150;8.680;2022-09-09T08:07:52;6.50;;;1.30;;
13415;SDS011;6779;50.150;8.680;2022-09-09T08:10:18;4.33;;;1.50;;
13415;SDS011;6779;50.150;8.680;2022-09-09T08:12:43;2.50;;;1.60;;
13415;SDS011;6779;50.150;8.680;2022-09-09T08:15:12;4.70;;;1.50;;
13415;SDS011;6779;50.150;8.680;2022-09-09T08:17:37;4.70;;;1.70;;
13415;SDS011;6779;50.150;8.680;2022-09-09T08:20:03;3.87;;;1.67;;
13415;SDS011;6779;50.150;8.680;2022-09-09T08:22:30;3.07;;;1.50;;
13415;SDS011;6779;50.150;8.680;2022-09-09T08:24:56;2.20;;;1.33;;
13415;SDS011;6779;50.150;8.680;2022-09-09T08:27:21;3.13;;;1.33;;
13415;SDS011;6779;50.150;8.680;2022-09-09T08:29:47;7.10;;;1.90;;
13415;SDS011;6779;50.150;8.680;2022-09-09T08:32:13;3.07;;;1.67;;
13415;SDS011;6779;50.150;8.680;2022-09-09T08:34:38;1.90;;;1.67;;
13415;SDS011;6779;50.150;8.680;2022-09-09T08:37:06;1.63;;;1.30;;
13415;SDS011;6779;50.150;8.680;2022-09-09T08:39:31;4.43;;;2.03;;
13415;SDS011;6779;50.150;8.680;2022-09-09T08:47:34;4.63;;;2.58;;
13415;SDS011;6779;50.150;8.680;2022-09-09T08:50:28;4.03;;;1.80;;
13415;SDS011;6779;50.150;8.680;2022-09-09T08:52:59;3.00;;;1.50;;
13415;SDS011;6779;50.150;8.680;2022-09-09T08:55:33;2.43;;;1.40;;
13415;SDS011;6779;50.150;8.680;2022-09-09T08:58:02;4.80;;;1.87;;
13415;SDS011;6779;50.150;8.680;2022-09-09T09:03:25;3.33;;;1.50;;
13415;SDS011;6779;50.150;8.680;2022-09-09T09:06:05;1.67;;;1.57;;
13415;SDS011;6779;50.150;8.680;2022-09-09T09:08:55;1.73;;;1.33;;
13415;SDS011;6779;50.150;8.680;2022-09-09T09:11:37;3.57;;;1.43;;
13415;SDS011;6779;50.150;8.680;2022-09-09T09:14:11;4.93;;;1.53;;
13415;SDS011;6779;50.150;8.680;2022-09-09T09:17:02;1.77;;;1.17;;
13415;SDS011;6779;50.150;8.680;2022-09-09T09:19:32;4.40;;;1.70;;
13415;SDS011;6779;50.150;8.680;2022-09-09T09:22:06;2.03;;;1.53;;
13415;SDS011;6779;50.150;8.680;2022-09-09T09:24:56;1.80;;;1.53;;
13415;SDS011;6779;50.150;8.680;2022-09-09T09:27:35;2.47;;;1.40;;
13415;SDS011;6779;50.150;8.680;2022-09-09T09:30:14;3.50;;;1.27;;
13415;SDS011;6779;50.150;8.680;2022-09-09T09:35:25;2.70;;;1.30;;
13415;SDS011;6779;50.150;8.680;2022-09-09T09:37:50;3.87;;;1.40;;
13415;SDS011;6779;50.150;8.680;2022-09-09T09:40:17;2.90;;;1.30;;
13415;SDS011;6779;50.150;8.680;2022-09-09T09:42:54;2.80;;;1.00;;
13415;SDS011;6779;50.150;8.680;2022-09-09T09:45:27;5.67;;;1.10;;
13415;SDS011;6779;50.150;8.680;2022-09-09T09:48:04;3.23;;;1.13;;
13415;SDS011;6779;50.150;8.680;2022-09-09T09:50:31;5.50;;;1.30;;
13415;SDS011;6779;50.150;8.680;2022-09-09T09:53:02;1.63;;;1.10;;
13415;SDS011;6779;50.150;8.680;2022-09-09T09:55:32;3.57;;;1.70;;
13415;SDS011;6779;50.150;8.680;2022-09-09T09:58:03;4.50;;;1.50;;
13415;SDS011;6779;50.150;8.680;2022-09-09T10:00:30;4.17;;;1.30;;
13415;SDS011;6779;50.150;8.680;2022-09-09T10:02:55;2.10;;;1.03;;
13415;SDS011;6779;50.150;8.680;2022-09-09T10:05:22;2.37;;;1.30;;
13415;SDS011;6779;50.150;8.680;2022-09-09T10:08:03;3.90;;;1.80;;
13415;SDS011;6779;50.150;8.680;2022-09-09T10:21:49;2.97;;;1.63;;
13415;SDS011;6779;50.150;8.680;2022-09-09T10:27:03;2.83;;;1.00;;
13415;SDS011;6779;50.150;8.680;2022-09-09T10:29:47;2.80;;;1.20;;
13415;SDS011;6779;50.150;8.680;2022-09-09T10:34:58;2.27;;;0.93;;
13415;SDS011;6779;50.150;8.680;2022-09-09T10:40:42;3.87;;;1.10;;
13415;SDS011;6779;50.150;8.680;2022-09-09T10:49:01;4.80;;;1.63;;
13415;SDS011;6779;50.150;8.680;2022-09-09T10:54:22;5.87;;;1.73;;
13415;SDS011;6779;50.150;8.680;2022-09-09T10:57:13;2.90;;;1.67;;
13415;SDS011;6779;50.150;8.680;2022-09-09T10:59:47;4.70;;;2.13;;
13415;SDS011;6779;50.150;8.680;2022-09-09T11:02:20;4.53;;;1.43;;
13415;SDS011;6779;50.150;8.680;2022-09-09T11:04:53;2.93;;;1.70;;
13415;SDS011;6779;50.150;8.680;2022-09-09T11:07:28;2.73;;;2.13;;
13415;SDS011;6779;50.150;8.680;2022-09-09T11:13:05;6.03;;;1.70;;
13415;SDS011;6779;50.150;8.680;2022-09-09T11:15:43;4.60;;;1.60;;
13415;SDS011;6779;50.150;8.680;2022-09-09T11:18:16;4.37;;;1.43;;
13415;SDS011;6779;50.150;8.680;2022-09-09T11:20:47;5.77;;;1.30;;
13415;SDS011;6779;50.150;8.680;2022-09-09T11:23:20;5.03;;;0.98;;
13415;SDS011;6779;50.150;8.680;2022-09-09T11:25:54;4.13;;;1.17;;
13415;SDS011;6779;50.150;8.680;2022-09-09T11:31:07;2.17;;;1.10;;
13415;SDS011;6779;50.150;8.680;2022-09-09T11:33:56;2.23;;;1.03;;
13415;SDS011;6779;50.150;8.680;2022-09-09T11:39:28;2.83;;;1.00;;
13415;SDS011;6779;50.150;8.680;2022-09-09T11:42:07;3.37;;;1.30;;
13415;SDS011;6779;50.150;8.680;2022-09-09T11:44:38;1.90;;;1.03;;
13415;SDS011;6779;50.150;8.680;2022-09-09T11:47:16;1.20;;;1.10;;
13415;SDS011;6779;50.150;8.680;2022-09-09T11:50:08;3.90;;;1.27;;
13415;SDS011;6779;50.150;8.680;2022-09-09T11:55:28;1.93;;;1.43;;
13415;SDS011;6779;50.150;8.680;2022-09-09T11:58:00;2.03;;;0.97;;
13415;SDS011;6779;50.150;8.680;2022-09-09T12:02:58;1.50;;;1.10;;
13415;SDS011;6779;50.150;8.680;2022-09-09T12:05:24;2.30;;;1.00;;
13415;SDS011;6779;50.150;8.680;2022-09-09T12:08:05;1.87;;;1.07;;
13415;SDS011;6779;50.150;8.680;2022-09-09T12:10:35;3.30;;;1.07;;
13415;SDS011;6779;50.150;8.680;2022-09-09T12:13:18;3.57;;;1.23;;
13415;SDS011;6779;50.150;8.680;2022-09-09T12:15:50;2.57;;;1.80;;
13415;SDS011;6779;50.150;8.680;2022-09-09T12:18:24;4.83;;;2.13;;
13415;SDS011;6779;50.150;8.680;2022-09-09T12:21:03;1.80;;;1.40;;
13415;SDS011;6779;50.150;8.680;2022-09-09T12:23:58;2.13;;;1.10;;
13415;SDS011;6779;50.150;8.680;2022-09-09T12:26:32;1.17;;;0.80;;
13415;SDS011;6779;50.150;8.680;2022-09-09T12:36:55;2.57;;;1.40;;
13415;SDS011;6779;50.150;8.680;2022-09-09T12:39:29;2.20;;;1.00;;
13415;SDS011;6779;50.150;8.680;2022-09-09T12:42:02;4.73;;;1.00;;
13415;SDS011;6779;50.150;8.680;2022-09-09T12:44:28;1.97;;;1.00;;
13415;SDS011;6779;50.150;8.680;2022-09-09T12:46:54;2.73;;;0.90;;
13415;SDS011;6779;50.150;8.680;2022-09-09T12:49:26;1.67;;;0.93;;
13415;SDS011;6779;50.150;8.680;2022-09-09T12:52:14;1.33;;;0.90;;
13415;SDS011;6779;50.150;8.680;2022-09-09T12:54:47;3.17;;;1.13;;
13415;SDS011;6779;50.150;8.680;2022-09-09T12:57:15;2.67;;;1.20;;
13415;SDS011;6779;50.150;8.680;2022-09-09T12:59:42;5.10;;;1.07;;
13415;SDS011;6779;50.150;8.680;2022-09-09T13:02:23;0.93;;;0.80;;
13415;SDS011;6779;50.150;8.680;2022-09-09T13:04:50;1.27;;;0.67;;
13415;SDS011;6779;50.150;8.680;2022-09-09T13:07:20;5.87;;;0.87;;
13415;SDS011;6779;50.150;8.680;2022-09-09T13:09:47;1.43;;;0.90;;
13415;SDS011;6779;50.150;8.680;2022-09-09T13:12:19;1.40;;;0.83;;
13415;SDS011;6779;50.150;8.680;2022-09-09T13:14:51;2.57;;;0.97;;
13415;SDS011;6779;50.150;8.680;2022-09-09T13:19:49;1.47;;;1.30;;
13415;SDS011;6779;50.150;8.680;2022-09-09T13:22:20;3.00;;;0.90;;
13415;SDS011;6779;50.150;8.680;2022-09-09T13:24:59;2.93;;;1.00;;
13415;SDS011;6779;50.150;8.680;2022-09-09T13:27:29;2.77;;;0.97;;
13415;SDS011;6779;50.150;8.680;2022-09-09T13:29:57;1.03;;;0.90;;
13415;SDS011;6779;50.150;8.680;2022-09-09T13:32:23;2.80;;;1.00;;
13415;SDS011;6779;50.150;8.680;2022-09-09T13:34:52;3.80;;;1.00;;
13415;SDS011;6779;50.150;8.680;2022-09-09T13:39:55;5.43;;;1.13;;
13415;SDS011;6779;50.150;8.680;2022-09-09T13:42:31;3.27;;;0.90;;
13415;SDS011;6779;50.150;8.680;2022-09-09T13:45:00;1.27;;;0.60;;
13415;SDS011;6779;50.150;8.680;2022-09-09T13:47:31;1.33;;;0.63;;
13415;SDS011;6779;50.150;8.680;2022-09-09T13:50:09;3.10;;;0.90;;
13415;SDS011;6779;50.150;8.680;2022-09-09T13:52:49;0.93;;;0.60;;
13415;SDS011;6779;50.150;8.680;2022-09-09T13:55:18;1.13;;;0.60;;
13415;SDS011;6779;50.150;8.680;2022-09-09T13:57:56;1.13;;;0.50;;
13415;SDS011;6779;50.150;8.680;2022-09-09T14:00:24;1.47;;;0.67;;
13415;SDS011;6779;50.150;8.680;2022-09-09T14:02:50;0.57;;;0.50;;
13415;SDS011;6779;50.150;8.680;2022-09-09T14:05:16;3.40;;;0.90;;
13415;SDS011;6779;50.150;8.680;2022-09-09T14:07:43;0.73;;;0.60;;
13415;SDS011;6779;50.150;8.680;2022-09-09T14:10:09;0.87;;;0.53;;
13415;SDS011;6779;50.150;8.680;2022-09-09T14:12:36;3.40;;;0.60;;
13415;SDS011;6779;50.150;8.680;2022-09-09T14:15:02;1.80;;;0.87;;
13415;SDS011;6779;50.150;8.680;2022-09-09T14:17:28;2.80;;;1.53;;
13415;SDS011;6779;50.150;8.680;2022-09-09T14:19:55;1.87;;;0.70;;
13415;SDS011;6779;50.150;8.680;2022-09-09T14:22:21;1.47;;;0.80;;
13415;SDS011;6779;50.150;8.680;2022-09-09T14:24:47;0.73;;;0.63;;
13415;SDS011;6779;50.150;8.680;2022-09-09T14:27:12;0.67;;;0.67;;
13415;SDS011;6779;50.150;8.680;2022-09-09T14:29:38;0.73;;;0.50;;
13415;SDS011;6779;50.150;8.680;2022-09-09T14:32:04;0.70;;;0.60;;
13415;SDS011;6779;50.150;8.680;2022-09-09T14:34:29;2.10;;;0.50;;
13415;SDS011;6779;50.150;8.680;2022-09-09T14:36:57;1.07;;;0.70;;
13415;SDS011;6779;50.150;8.680;2022-09-09T14:39:23;1.97;;;0.60;;
13415;SDS011;6779;50.150;8.680;2022-09-09T14:41:48;0.70;;;0.50;;
13415;SDS011;6779;50.150;8.680;2022-09-09T14:44:14;1.30;;;0.80;;
13415;SDS011;6779;50.150;8.680;2022-09-09T14:46:40;1.60;;;0.70;;
13415;SDS011;6779;50.150;8.680;2022-09-09T14:49:07;0.73;;;0.63;;
13415;SDS011;6779;50.150;8.680;2022-09-09T14:51:32;0.70;;;0.70;;
13415;SDS011;6779;50.150;8.680;2022-09-09T14:53:59;0.93;;;0.60;;
13415;SDS011;6779;50.150;8.680;2022-09-09T14:56:27;0.70;;;0.70;;
13415;SDS011;6779;50.150;8.680;2022-09-09T14:58:56;1.03;;;0.70;;
13415;SDS011;6779;50.150;8.680;2022-09-09T15:01:22;1.23;;;0.77;;
13415;SDS011;6779;50.150;8.680;2022-09-09T15:03:59;1.53;;;0.70;;
13415;SDS011;6779;50.150;8.680;2022-09-09T15:06:28;0.93;;;0.80;;
13415;SDS011;6779;50.150;8.680;2022-09-09T15:08:57;1.43;;;0.70;;
13415;SDS011;6779;50.150;8.680;2022-09-09T15:11:25;1.20;;;0.60;;
13415;SDS011;6779;50.150;8.680;2022-09-09T15:13:52;0.80;;;0.60;;
13415;SDS011;6779;50.150;8.680;2022-09-09T15:16:20;2.83;;;0.77;;
13415;SDS011;6779;50.150;8.680;2022-09-09T15:18:50;2.33;;;0.73;;
13415;SDS011;6779;50.150;8.680;2022-09-09T15:21:17;0.80;;;0.57;;
13415;SDS011;6779;50.150;8.680;2022-09-09T15:23:44;1.10;;;0.80;;
13415;SDS011;6779;50.150;8.680;2022-09-09T15:26:10;0.50;;;0.50;;
13415;SDS011;6779;50.150;8.680;2022-09-09T15:28:39;0.57;;;0.50;;
13415;SDS011;6779;50.150;8.680;2022-09-09T15:31:05;2.10;;;0.53;;
13415;SDS011;6779;50.150;8.680;2022-09-09T15:33:33;2.53;;;0.60;;
13415;SDS011;6779;50.150;8.680;2022-09-09T15:36:11;1.23;;;0.57;;
13415;SDS011;6779;50.150;8.680;2022-09-09T15:38:38;1.40;;;0.70;;
13415;SDS011;6779;50.150;8.680;2022-09-09T15:41:03;2.73;;;0.60;;
13415;SDS011;6779;50.150;8.680;2022-09-09T15:43:29;0.77;;;0.60;;
13415;SDS011;6779;50.150;8.680;2022-09-09T15:45:57;1.83;;;0.70;;
13415;SDS011;6779;50.150;8.680;2022-09-09T15:48:29;2.23;;;0.70;;
13415;SDS011;6779;50.150;8.680;2022-09-09T15:51:01;2.13;;;0.73;;
13415;SDS011;6779;50.150;8.680;2022-09-09T15:53:28;0.80;;;0.57;;
13415;SDS011;6779;50.150;8.680;2022-09-09T15:55:54;1.97;;;0.90;;
13415;SDS011;6779;50.150;8.680;2022-09-09T15:58:20;0.50;;;0.50;;
13415;SDS011;6779;50.150;8.680;2022-09-09T16:00:46;0.77;;;0.67;;
13415;SDS011;6779;50.150;8.680;2022-09-09T16:03:11;1.70;;;1.00;;
13415;SDS011;6779;50.150;8.680;2022-09-09T16:05:37;1.60;;;0.60;;
13415;SDS011;6779;50.150;8.680;2022-09-09T16:08:03;1.80;;;0.80;;
13415;SDS011;6779;50.150;8.680;2022-09-09T16:10:28;2.43;;;1.30;;
13415;SDS011;6779;50.150;8.680;2022-09-09T16:12:55;0.60;;;0.60;;
13415;SDS011;6779;50.150;8.680;2022-09-09T16:15:21;1.97;;;0.70;;
13415;SDS011;6779;50.150;8.680;2022-09-09T16:17:48;0.60;;;0.50;;
13415;SDS011;6779;50.150;8.680;2022-09-09T16:20:14;1.47;;;0.70;;
13415;SDS011;6779;50.150;8.680;2022-09-09T16:22:39;2.60;;;0.87;;
13415;SDS011;6779;50.150;8.680;2022-09-09T16:25:05;2.03;;;0.80;;
13415;SDS011;6779;50.150;8.680;2022-09-09T16:27:31;2.73;;;0.70;;
13415;SDS011;6779;50.150;8.680;2022-09-09T16:29:56;0.80;;;0.60;;
13415;SDS011;6779;50.150;8.680;2022-09-09T16:32:22;1.47;;;0.73;;
13415;SDS011;6779;50.150;8.680;2022-09-09T16:34:47;1.13;;;0.73;;
13415;SDS011;6779;50.150;8.680;2022-09-09T16:37:13;1.67;;;0.83;;
13415;SDS011;6779;50.150;8.680;2022-09-09T16:39:38;2.93;;;0.80;;
13415;SDS011;6779;50.150;8.680;2022-09-09T16:42:04;1.43;;;0.90;;
13415;SDS011;6779;50.150;8.680;2022-09-09T16:44:30;1.73;;;1.00;;
13415;SDS011;6779;50.150;8.680;2022-09-09T16:46:55;0.60;;;0.60;;